createdAt,value
2019-01-31T00:01:21.995Z,0.80
2019-01-31T00:04:00.134Z,0.70
2019-01-31T00:06:33.249Z,0.60
2019-01-31T00:09:06.674Z,0.60
2019-01-31T00:11:40.330Z,0.60
2019-01-31T00:14:11.838Z,0.70
2019-01-31T00:16:47.472Z,0.60
2019-01-31T00:19:16.293Z,0.70
2019-01-31T00:24:29.346Z,0.80
2019-01-31T00:26:59.965Z,0.70
2019-01-31T00:29:28.806Z,0.70
2019-01-31T00:32:09.454Z,0.70
2019-01-31T00:37:35.613Z,0.70
2019-01-31T00:43:03.108Z,0.70
2019-01-31T00:45:35.124Z,0.70
2019-01-31T00:48:09.724Z,0.60
2019-01-31T00:50:42.984Z,0.60
2019-01-31T00:53:15.124Z,0.60
2019-01-31T01:03:40.079Z,0.60
2019-01-31T01:06:10.867Z,0.60
2019-01-31T01:11:28.062Z,0.60
2019-01-31T01:16:50.155Z,0.60
2019-01-31T01:19:19.950Z,0.70
2019-01-31T01:24:44.735Z,0.70
2019-01-31T01:30:08.419Z,0.70
2019-01-31T01:35:18.187Z,0.60
2019-01-31T01:37:56.236Z,0.50
2019-01-31T01:43:21.386Z,0.40
2019-01-31T01:45:55.662Z,0.30
2019-01-31T01:48:30.380Z,0.30
2019-01-31T01:51:01.760Z,0.30
2019-01-31T01:53:33.237Z,0.30
2019-01-31T01:58:56.366Z,0.40
2019-01-31T02:01:32.156Z,0.40
2019-01-31T02:04:03.654Z,0.40
2019-01-31T02:09:30.113Z,0.50
2019-01-31T02:14:31.696Z,0.50
2019-01-31T02:17:02.078Z,0.50
2019-01-31T02:19:36.444Z,0.50
2019-01-31T02:22:14.443Z,0.50
2019-01-31T02:24:44.198Z,0.50
2019-01-31T02:27:17.039Z,0.60
2019-01-31T02:29:48.507Z,0.50
2019-01-31T02:35:11.722Z,0.50
2019-01-31T02:40:37.615Z,0.60
2019-01-31T02:43:13.948Z,0.50
2019-01-31T02:45:51.584Z,0.50
2019-01-31T02:48:20.418Z,0.50
2019-01-31T02:53:40.956Z,0.50
2019-01-31T02:56:13.414Z,0.50
2019-01-31T02:58:48.991Z,0.50
2019-01-31T03:04:05.501Z,0.50
2019-01-31T03:09:15.291Z,0.60
2019-01-31T03:11:46.363Z,0.50
2019-01-31T03:14:15.183Z,0.50
2019-01-31T03:19:25.998Z,0.60
2019-01-31T03:21:57.247Z,0.50
2019-01-31T03:27:23.812Z,0.60
2019-01-31T03:30:02.019Z,0.50
2019-01-31T03:32:34.685Z,0.50
2019-01-31T03:35:13.079Z,0.50
2019-01-31T03:40:29.620Z,0.50
2019-01-31T03:43:07.293Z,0.50
2019-01-31T03:48:23.194Z,0.50
2019-01-31T03:53:44.256Z,0.50
2019-01-31T03:56:22.628Z,0.40
2019-01-31T03:58:52.245Z,0.40
2019-01-31T04:04:10.795Z,0.40
2019-01-31T04:06:39.585Z,0.30
2019-01-31T04:09:08.411Z,0.30
2019-01-31T04:11:37.366Z,0.40
2019-01-31T04:14:06.071Z,0.30
2019-01-31T04:16:34.887Z,0.30
2019-01-31T04:19:03.719Z,0.30
2019-01-31T04:21:32.540Z,0.20
2019-01-31T04:24:01.381Z,0.20
2019-01-31T04:26:30.259Z,0.20
2019-01-31T04:28:59.034Z,0.20
2019-01-31T04:31:27.862Z,0.20
2019-01-31T04:33:56.691Z,0.20
2019-01-31T04:36:25.508Z,0.20
2019-01-31T04:38:54.333Z,0.30
2019-01-31T04:41:23.161Z,0.30
2019-01-31T04:43:51.981Z,0.30
2019-01-31T04:46:20.809Z,0.40
2019-01-31T04:48:49.661Z,0.40
2019-01-31T04:51:18.490Z,0.40
2019-01-31T04:56:16.744Z,0.40
2019-01-31T04:58:45.593Z,0.40
2019-01-31T05:01:14.453Z,0.40
2019-01-31T05:03:43.277Z,0.40
2019-01-31T05:06:12.837Z,0.40
2019-01-31T05:08:41.686Z,0.40
2019-01-31T05:11:11.236Z,0.40
2019-01-31T05:13:40.059Z,0.40
2019-01-31T05:16:08.885Z,0.40
2019-01-31T05:18:37.710Z,0.50
2019-01-31T05:21:06.539Z,0.40
2019-01-31T05:23:36.101Z,0.50
2019-01-31T05:26:04.917Z,0.50
2019-01-31T05:28:34.495Z,0.50
2019-01-31T05:31:03.403Z,0.50
2019-01-31T05:33:32.231Z,0.60
2019-01-31T05:36:01.055Z,0.50
2019-01-31T05:38:29.877Z,0.50
2019-01-31T05:40:59.462Z,0.50
2019-01-31T05:43:28.275Z,0.50
2019-01-31T05:45:57.854Z,0.50
2019-01-31T05:48:26.691Z,0.60
2019-01-31T05:50:55.533Z,0.60
2019-01-31T05:53:24.362Z,0.70
2019-01-31T05:55:53.939Z,0.60
2019-01-31T05:58:22.769Z,0.60
2019-01-31T06:00:51.618Z,0.70
2019-01-31T06:03:20.454Z,0.60
2019-01-31T06:05:49.289Z,0.60
2019-01-31T06:08:18.109Z,0.60
2019-01-31T06:10:47.682Z,0.60
2019-01-31T06:13:16.522Z,0.70
2019-01-31T06:15:45.391Z,0.60
2019-01-31T06:18:14.207Z,0.60
2019-01-31T06:20:43.059Z,0.50
2019-01-31T06:23:11.856Z,0.40
2019-01-31T06:25:41.421Z,0.40
2019-01-31T06:28:12.909Z,0.40
2019-01-31T06:30:39.847Z,0.40
2019-01-31T06:33:08.696Z,0.40
2019-01-31T06:35:37.516Z,0.30
2019-01-31T06:38:07.081Z,0.20
2019-01-31T06:40:35.913Z,0.30
2019-01-31T06:43:04.761Z,0.20
2019-01-31T06:45:33.585Z,0.20
2019-01-31T06:48:05.104Z,0.20
2019-01-31T06:50:31.251Z,0.20
2019-01-31T06:53:00.091Z,0.10
2019-01-31T06:55:28.936Z,0.10
2019-01-31T06:57:57.771Z,0.00
2019-01-31T07:00:26.611Z,0.00
2019-01-31T07:05:24.857Z,0.00
2019-01-31T07:07:53.712Z,-0.10
2019-01-31T07:10:24.285Z,-0.10
2019-01-31T07:12:53.037Z,-0.10
2019-01-31T07:15:22.608Z,-0.10
2019-01-31T07:17:51.477Z,0.00
2019-01-31T07:20:20.305Z,0.00
2019-01-31T07:22:49.123Z,0.00
2019-01-31T07:25:17.963Z,0.00
2019-01-31T07:27:46.908Z,0.00
2019-01-31T07:30:15.695Z,0.00
2019-01-31T07:32:44.521Z,0.00
2019-01-31T07:35:13.364Z,-0.10
2019-01-31T07:37:42.179Z,-0.10
2019-01-31T07:40:11.006Z,-0.10
2019-01-31T07:42:39.839Z,-0.10
2019-01-31T07:47:51.671Z,0.00
2019-01-31T07:50:20.496Z,0.00
2019-01-31T07:52:49.325Z,0.00
2019-01-31T07:55:18.156Z,0.00
2019-01-31T07:57:46.980Z,0.00
2019-01-31T08:00:16.572Z,0.00
2019-01-31T08:02:45.399Z,0.00
2019-01-31T08:05:14.253Z,0.10
2019-01-31T08:07:43.063Z,0.10
2019-01-31T08:10:12.649Z,0.10
2019-01-31T08:12:41.486Z,0.10
2019-01-31T08:15:13.085Z,0.20
2019-01-31T08:17:41.915Z,0.20
2019-01-31T08:20:10.777Z,0.20
2019-01-31T08:22:39.572Z,0.20
2019-01-31T08:25:09.155Z,0.20
2019-01-31T08:27:37.983Z,0.20
2019-01-31T08:30:07.777Z,0.20
2019-01-31T08:32:37.338Z,0.20
2019-01-31T08:35:06.767Z,0.20
2019-01-31T08:37:35.597Z,0.20
2019-01-31T08:40:04.454Z,0.30
2019-01-31T08:42:34.013Z,0.30
2019-01-31T08:45:02.852Z,0.30
2019-01-31T08:47:32.462Z,0.30
2019-01-31T08:50:01.313Z,0.50
2019-01-31T08:52:30.137Z,0.60
2019-01-31T08:54:59.711Z,0.50
2019-01-31T08:57:28.532Z,0.50
2019-01-31T08:59:58.102Z,0.50
2019-01-31T09:02:26.930Z,0.70
2019-01-31T09:04:56.520Z,0.60
2019-01-31T09:07:25.378Z,0.70
2019-01-31T09:09:54.195Z,0.80
2019-01-31T09:14:53.183Z,0.70
2019-01-31T09:17:22.033Z,0.80
2019-01-31T09:19:50.877Z,0.90
2019-01-31T09:22:19.739Z,0.90
2019-01-31T09:24:51.559Z,0.90
2019-01-31T09:30:16.285Z,1.00
2019-01-31T09:32:47.928Z,1.00
2019-01-31T09:38:01.781Z,1.10
2019-01-31T09:40:36.507Z,1.20
2019-01-31T09:43:09.690Z,1.30
2019-01-31T09:48:31.011Z,1.30
2019-01-31T09:51:12.017Z,1.20
2019-01-31T09:53:50.418Z,1.20
2019-01-31T09:56:30.203Z,1.30
2019-01-31T09:59:00.971Z,1.30
2019-01-31T10:01:38.231Z,1.30
2019-01-31T10:04:07.981Z,1.30
2019-01-31T10:09:25.646Z,1.40
2019-01-31T10:14:39.278Z,1.60
2019-01-31T10:17:18.540Z,1.60
2019-01-31T10:19:48.266Z,1.70
2019-01-31T10:22:20.910Z,1.80
2019-01-31T10:24:54.515Z,1.80
2019-01-31T10:30:09.895Z,2.00
2019-01-31T10:35:30.253Z,2.10
2019-01-31T10:38:02.380Z,2.10
2019-01-31T10:43:22.503Z,2.10
2019-01-31T10:45:55.923Z,2.10
2019-01-31T10:48:27.530Z,2.10
2019-01-31T10:51:08.837Z,2.10
2019-01-31T10:53:46.275Z,2.20
2019-01-31T10:56:26.457Z,2.20
2019-01-31T10:59:08.451Z,2.10
2019-01-31T11:01:46.342Z,2.20
2019-01-31T11:04:20.543Z,2.20
2019-01-31T11:09:43.665Z,2.20
2019-01-31T11:17:48.451Z,2.20
2019-01-31T11:20:17.283Z,2.20
2019-01-31T11:22:48.775Z,2.10
2019-01-31T11:28:05.310Z,2.20
2019-01-31T11:30:41.373Z,2.30
2019-01-31T11:33:17.874Z,2.30
2019-01-31T11:38:47.570Z,2.30
2019-01-31T11:41:19.169Z,2.30
2019-01-31T11:44:01.473Z,2.30
2019-01-31T11:46:35.563Z,2.40
2019-01-31T11:49:10.251Z,2.60
2019-01-31T11:54:28.934Z,2.70
2019-01-31T11:57:05.549Z,2.60
2019-01-31T11:59:31.217Z,2.60
2019-01-31T12:02:00.047Z,2.70
2019-01-31T12:04:28.889Z,2.70
2019-01-31T12:06:57.732Z,2.60
2019-01-31T12:09:26.574Z,2.60
2019-01-31T12:11:55.430Z,2.60
2019-01-31T12:14:24.254Z,2.60
2019-01-31T12:16:53.074Z,2.70
2019-01-31T12:19:21.942Z,2.90
2019-01-31T12:21:50.734Z,2.90
2019-01-31T12:24:19.549Z,2.90
2019-01-31T12:26:48.391Z,3.00
2019-01-31T12:29:17.275Z,3.20
2019-01-31T12:31:46.111Z,3.40
2019-01-31T12:34:14.946Z,3.50
2019-01-31T12:36:43.785Z,3.50
2019-01-31T12:39:12.602Z,3.40
2019-01-31T12:41:42.176Z,3.30
2019-01-31T12:44:11.045Z,3.40
2019-01-31T12:46:39.869Z,3.40
2019-01-31T12:49:09.449Z,3.40
2019-01-31T12:51:38.279Z,3.50
2019-01-31T12:54:07.867Z,3.50
2019-01-31T12:56:36.717Z,3.50
2019-01-31T12:59:05.555Z,3.50
2019-01-31T13:01:34.490Z,3.50
2019-01-31T13:04:03.240Z,3.60
2019-01-31T13:06:32.171Z,3.60
2019-01-31T13:09:00.912Z,3.60
2019-01-31T13:11:30.519Z,3.60
2019-01-31T13:14:00.106Z,3.60
2019-01-31T13:16:28.935Z,3.80
2019-01-31T13:18:57.816Z,3.90
2019-01-31T13:21:26.657Z,4.10
2019-01-31T13:23:55.497Z,4.10
2019-01-31T13:26:24.341Z,3.90
2019-01-31T13:28:53.161Z,3.90
2019-01-31T13:31:22.734Z,3.90
2019-01-31T13:33:51.628Z,3.90
2019-01-31T13:36:20.445Z,3.90
2019-01-31T13:38:50.014Z,3.90
2019-01-31T13:41:18.838Z,4.00
2019-01-31T13:43:57.231Z,4.00
2019-01-31T13:46:17.253Z,4.00
2019-01-31T13:48:46.104Z,4.00
2019-01-31T13:51:15.030Z,4.00
2019-01-31T13:53:43.765Z,3.90
2019-01-31T13:56:12.586Z,3.80
2019-01-31T13:58:41.424Z,3.80
2019-01-31T14:01:10.260Z,4.00
2019-01-31T14:03:39.104Z,4.00
2019-01-31T14:06:07.939Z,4.00
2019-01-31T14:08:36.778Z,4.00
2019-01-31T14:11:05.600Z,4.00
2019-01-31T14:13:34.428Z,4.00
2019-01-31T14:16:03.290Z,4.00
2019-01-31T14:18:32.121Z,4.00
2019-01-31T14:21:00.974Z,3.90
2019-01-31T14:23:30.600Z,3.90
2019-01-31T14:25:59.408Z,3.80
2019-01-31T14:28:28.309Z,3.80
2019-01-31T14:30:57.093Z,3.80
2019-01-31T14:33:25.949Z,3.70
2019-01-31T14:35:57.874Z,3.70
2019-01-31T14:38:24.378Z,3.60
2019-01-31T14:40:53.210Z,3.60
2019-01-31T14:43:22.039Z,3.60
2019-01-31T14:45:50.895Z,3.60
2019-01-31T14:48:20.466Z,3.70
2019-01-31T14:50:49.330Z,3.80
2019-01-31T14:53:18.168Z,3.70
2019-01-31T14:55:47.055Z,3.70
2019-01-31T14:58:15.848Z,3.70
2019-01-31T15:00:44.721Z,3.80
2019-01-31T15:03:13.539Z,3.80
2019-01-31T15:05:42.375Z,3.70
2019-01-31T15:08:11.213Z,3.70
2019-01-31T15:10:40.057Z,3.60
2019-01-31T15:13:08.888Z,3.60
2019-01-31T15:15:37.719Z,3.60
2019-01-31T15:18:06.565Z,3.60
2019-01-31T15:20:38.241Z,3.50
2019-01-31T15:23:04.233Z,3.50
2019-01-31T15:25:33.046Z,3.40
2019-01-31T15:28:02.643Z,3.30
2019-01-31T15:30:33.312Z,3.30
2019-01-31T15:33:02.170Z,3.20
2019-01-31T15:35:31.801Z,3.10
2019-01-31T15:38:00.616Z,3.20
2019-01-31T15:40:29.471Z,3.10
2019-01-31T15:42:58.306Z,3.00
2019-01-31T15:45:27.144Z,3.00
2019-01-31T15:47:56.727Z,3.00
2019-01-31T15:50:25.559Z,2.90
2019-01-31T15:52:54.419Z,2.90
2019-01-31T15:55:23.258Z,2.80
2019-01-31T15:57:52.101Z,2.90
2019-01-31T16:00:22.461Z,2.70
2019-01-31T16:02:51.298Z,2.70
2019-01-31T16:05:20.150Z,2.60
2019-01-31T16:07:48.979Z,2.60
2019-01-31T16:10:18.591Z,2.60
2019-01-31T16:12:47.402Z,2.60
2019-01-31T16:15:16.248Z,2.70
2019-01-31T16:17:45.087Z,2.60
2019-01-31T16:20:13.923Z,2.50
2019-01-31T16:22:42.744Z,2.40
2019-01-31T16:25:12.375Z,2.30
2019-01-31T16:27:41.237Z,2.20
2019-01-31T16:30:10.999Z,2.20
2019-01-31T16:32:42.779Z,2.20
2019-01-31T16:35:11.655Z,2.10
2019-01-31T16:37:40.444Z,2.10
2019-01-31T16:40:09.309Z,2.00
2019-01-31T16:42:38.954Z,2.00
2019-01-31T16:45:07.751Z,2.00
2019-01-31T16:47:36.542Z,2.00
2019-01-31T16:50:05.417Z,2.00
2019-01-31T16:52:34.272Z,2.00
2019-01-31T16:55:03.826Z,1.90
2019-01-31T16:57:33.239Z,2.00
2019-01-31T17:00:01.505Z,1.90
2019-01-31T17:02:30.322Z,1.90
2019-01-31T17:04:59.189Z,1.90
2019-01-31T17:07:28.793Z,1.80
2019-01-31T17:09:57.630Z,1.90
2019-01-31T17:12:26.465Z,1.80
2019-01-31T17:14:55.292Z,1.70
2019-01-31T17:17:24.151Z,1.70
2019-01-31T17:19:53.749Z,1.60
2019-01-31T17:22:22.545Z,1.60
2019-01-31T17:24:52.177Z,1.60
2019-01-31T17:27:21.007Z,1.70
2019-01-31T17:29:49.843Z,1.70
2019-01-31T17:32:19.413Z,1.70
2019-01-31T17:34:48.239Z,1.70
2019-01-31T17:37:17.957Z,1.70
2019-01-31T17:39:46.793Z,1.80
2019-01-31T17:42:15.625Z,1.70
2019-01-31T17:44:45.201Z,1.70
2019-01-31T17:47:14.039Z,1.70
2019-01-31T17:49:42.872Z,1.60
2019-01-31T17:52:11.691Z,1.50
2019-01-31T17:54:40.840Z,1.50
2019-01-31T17:57:09.409Z,1.50
2019-01-31T17:59:38.233Z,1.40
2019-01-31T18:02:07.060Z,1.40
2019-01-31T18:04:35.917Z,1.40
2019-01-31T18:07:04.760Z,1.30
2019-01-31T18:09:33.597Z,1.30
2019-01-31T18:12:02.435Z,1.20
2019-01-31T18:14:31.283Z,1.20
2019-01-31T18:17:00.878Z,1.20
2019-01-31T18:19:29.675Z,1.20
2019-01-31T18:21:58.527Z,1.20
2019-01-31T18:24:27.368Z,1.10
2019-01-31T18:26:56.957Z,1.00
2019-01-31T18:29:25.785Z,1.00
2019-01-31T18:31:54.641Z,1.00
2019-01-31T18:34:24.244Z,1.00
2019-01-31T18:36:53.849Z,1.10
2019-01-31T18:39:23.459Z,1.20
2019-01-31T18:41:52.267Z,1.30
2019-01-31T18:44:21.095Z,1.30
2019-01-31T18:46:49.943Z,1.20
2019-01-31T18:49:19.552Z,1.20
2019-01-31T18:51:49.143Z,1.20
2019-01-31T18:54:17.986Z,1.20
2019-01-31T18:56:46.813Z,1.30
2019-01-31T18:59:15.659Z,1.30
2019-01-31T19:01:44.496Z,1.30
2019-01-31T19:04:13.321Z,1.20
2019-01-31T19:06:42.167Z,1.20
2019-01-31T19:09:11.009Z,1.30
2019-01-31T19:11:39.838Z,1.30
2019-01-31T19:14:08.659Z,1.30
2019-01-31T19:16:37.617Z,1.40
2019-01-31T19:19:06.462Z,1.40
2019-01-31T19:21:35.314Z,1.30
2019-01-31T19:24:04.905Z,1.30
2019-01-31T19:26:33.734Z,1.30
2019-01-31T19:29:02.714Z,1.30
2019-01-31T19:31:31.458Z,1.40
2019-01-31T19:34:00.294Z,1.40
2019-01-31T19:36:31.053Z,1.50
2019-01-31T19:38:58.699Z,1.50
2019-01-31T19:41:27.533Z,1.50
2019-01-31T19:43:56.388Z,1.60
2019-01-31T19:46:25.250Z,1.60
2019-01-31T19:48:54.085Z,1.60
2019-01-31T19:51:22.914Z,1.60
2019-01-31T19:53:51.743Z,1.60
2019-01-31T19:56:20.579Z,1.60
2019-01-31T19:58:49.403Z,1.60
2019-01-31T20:01:18.237Z,1.60
2019-01-31T20:03:47.070Z,1.60
2019-01-31T20:06:16.649Z,1.60
2019-01-31T20:08:45.491Z,1.60
2019-01-31T20:11:14.329Z,1.60
2019-01-31T20:13:43.930Z,1.60
2019-01-31T20:16:12.017Z,1.70
2019-01-31T20:18:40.853Z,1.70
2019-01-31T20:21:09.691Z,1.70
2019-01-31T20:23:38.539Z,1.70
2019-01-31T20:26:07.378Z,1.70
2019-01-31T20:28:37.024Z,1.70
2019-01-31T20:31:06.565Z,1.70
2019-01-31T20:33:35.403Z,1.70
2019-01-31T20:36:04.251Z,1.80
2019-01-31T20:38:33.059Z,1.70
2019-01-31T20:41:02.657Z,1.70
2019-01-31T20:43:31.496Z,1.80
2019-01-31T20:46:00.339Z,1.70
2019-01-31T20:48:29.196Z,1.70
2019-01-31T20:50:58.045Z,1.70
2019-01-31T20:53:26.893Z,1.70
2019-01-31T20:55:55.734Z,1.70
2019-01-31T20:58:24.571Z,1.70
2019-01-31T21:00:54.161Z,1.60
2019-01-31T21:03:24.863Z,1.70
2019-01-31T21:08:21.261Z,1.60
2019-01-31T21:10:50.116Z,1.60
2019-01-31T21:13:18.951Z,1.60
2019-01-31T21:15:48.678Z,1.60
2019-01-31T21:18:17.507Z,1.60
2019-01-31T21:20:46.341Z,1.50
2019-01-31T21:23:15.914Z,1.50
2019-01-31T21:25:44.751Z,1.50
2019-01-31T21:28:14.335Z,1.50
2019-01-31T21:30:43.165Z,1.40
2019-01-31T21:33:12.091Z,1.40
2019-01-31T21:35:40.825Z,1.40
2019-01-31T21:38:09.709Z,1.40
2019-01-31T21:40:38.491Z,1.40
2019-01-31T21:43:08.078Z,1.40
2019-01-31T21:45:36.934Z,1.40
2019-01-31T21:48:05.776Z,1.40
2019-01-31T21:50:35.367Z,1.40
2019-01-31T21:53:04.208Z,1.50
2019-01-31T21:55:33.046Z,1.50
2019-01-31T21:58:02.624Z,1.40
2019-01-31T22:00:32.228Z,1.50
2019-01-31T22:03:01.067Z,1.50
2019-01-31T22:05:29.898Z,1.50
2019-01-31T22:07:58.719Z,1.40
2019-01-31T22:10:27.565Z,1.40
2019-01-31T22:12:56.425Z,1.40
2019-01-31T22:15:26.787Z,1.40
2019-01-31T22:17:59.829Z,1.40
2019-01-31T22:20:25.197Z,1.40
2019-01-31T22:22:54.027Z,1.30
2019-01-31T22:25:23.648Z,1.40
2019-01-31T22:30:24.603Z,1.50
2019-01-31T22:32:53.290Z,1.40
2019-01-31T22:35:22.175Z,1.40
2019-01-31T22:37:51.016Z,1.40
2019-01-31T22:40:19.854Z,1.40
2019-01-31T22:42:49.430Z,1.40
2019-01-31T22:45:18.284Z,1.50
2019-01-31T22:47:47.114Z,1.50
2019-01-31T22:50:15.944Z,1.50
2019-01-31T22:52:44.846Z,1.50
2019-01-31T22:55:14.370Z,1.50
2019-01-31T22:57:43.212Z,1.50
2019-01-31T23:02:58.958Z,1.60
2019-01-31T23:05:27.782Z,1.50
2019-01-31T23:07:56.610Z,1.60
2019-01-31T23:10:25.449Z,1.60
2019-01-31T23:15:24.437Z,1.60
2019-01-31T23:17:53.259Z,1.60
2019-01-31T23:20:22.840Z,1.60
2019-01-31T23:22:51.663Z,1.60
2019-01-31T23:25:21.233Z,1.60
2019-01-31T23:27:50.077Z,1.60
2019-01-31T23:30:18.934Z,1.60
2019-01-31T23:32:50.758Z,1.70
2019-01-31T23:35:19.556Z,1.70
2019-01-31T23:37:48.449Z,1.70
2019-01-31T23:40:17.210Z,1.70
2019-01-31T23:42:46.065Z,1.80
2019-01-31T23:45:16.787Z,1.80
2019-01-31T23:47:48.906Z,1.80
2019-01-31T23:50:14.462Z,1.80
2019-01-31T23:52:43.292Z,1.80
2019-01-31T23:55:12.133Z,1.80
2019-01-31T23:57:40.962Z,1.80
